sensor_id;sensor_type;location;lat;lon;timestamp;P1;durP1;ratioP1;P2;durP2;ratioP2
38911;SDS011;28444;48.056;14.408;2023-07-09T00:01:35;12.32;;;6.65;;
38911;SDS011;28444;48.056;14.408;2023-07-09T00:04:23;12.23;;;6.75;;
38911;SDS011;28444;48.056;14.408;2023-07-09T00:07:30;10.10;;;6.43;;
38911;SDS011;28444;48.056;14.408;2023-07-09T00:10:19;13.20;;;7.00;;
38911;SDS011;28444;48.056;14.408;2023-07-09T00:13:07;9.02;;;6.43;;
38911;SDS011;28444;48.056;14.408;2023-07-09T00:15:55;14.32;;;7.00;;
38911;SDS011;28444;48.056;14.408;2023-07-09T00:18:46;13.45;;;6.88;;
38911;SDS011;28444;48.056;14.408;2023-07-09T00:21:35;9.90;;;6.35;;
38911;SDS011;28444;48.056;14.408;2023-07-09T00:24:22;14.88;;;7.93;;
38911;SDS011;28444;48.056;14.408;2023-07-09T00:27:10;9.05;;;6.72;;
38911;SDS011;28444;48.056;14.408;2023-07-09T00:29:58;11.25;;;6.78;;
38911;SDS011;28444;48.056;14.408;2023-07-09T00:32:45;8.07;;;6.38;;
38911;SDS011;28444;48.056;14.408;2023-07-09T00:35:32;13.00;;;6.53;;
38911;SDS011;28444;48.056;14.408;2023-07-09T00:38:20;10.38;;;7.03;;
38911;SDS011;28444;48.056;14.408;2023-07-09T00:41:13;10.63;;;6.28;;
38911;SDS011;28444;48.056;14.408;2023-07-09T00:49:51;10.40;;;6.85;;
38911;SDS011;28444;48.056;14.408;2023-07-09T00:52:56;11.68;;;6.65;;
38911;SDS011;28444;48.056;14.408;2023-07-09T00:55:49;16.90;;;7.72;;
38911;SDS011;28444;48.056;14.408;2023-07-09T00:58:43;14.18;;;7.07;;
38911;SDS011;28444;48.056;14.408;2023-07-09T01:01:34;13.63;;;6.43;;
38911;SDS011;28444;48.056;14.408;2023-07-09T01:04:21;11.35;;;6.97;;
38911;SDS011;28444;48.056;14.408;2023-07-09T01:07:09;14.75;;;6.57;;
38911;SDS011;28444;48.056;14.408;2023-07-09T01:09:56;11.77;;;7.32;;
38911;SDS011;28444;48.056;14.408;2023-07-09T01:12:44;9.90;;;6.93;;
38911;SDS011;28444;48.056;14.408;2023-07-09T01:15:34;11.80;;;6.82;;
38911;SDS011;28444;48.056;14.408;2023-07-09T01:18:24;11.35;;;6.88;;
38911;SDS011;28444;48.056;14.408;2023-07-09T01:21:11;10.30;;;6.85;;
38911;SDS011;28444;48.056;14.408;2023-07-09T01:24:12;15.63;;;7.90;;
38911;SDS011;28444;48.056;14.408;2023-07-09T01:27:00;10.68;;;7.20;;
38911;SDS011;28444;48.056;14.408;2023-07-09T01:29:48;17.13;;;8.50;;
38911;SDS011;28444;48.056;14.408;2023-07-09T01:32:36;10.50;;;6.97;;
38911;SDS011;28444;48.056;14.408;2023-07-09T01:35:24;11.18;;;6.72;;
38911;SDS011;28444;48.056;14.408;2023-07-09T01:38:12;14.32;;;7.15;;
38911;SDS011;28444;48.056;14.408;2023-07-09T01:41:00;11.00;;;6.97;;
38911;SDS011;28444;48.056;14.408;2023-07-09T01:43:48;11.55;;;6.70;;
38911;SDS011;28444;48.056;14.408;2023-07-09T01:46:35;8.30;;;6.03;;
38911;SDS011;28444;48.056;14.408;2023-07-09T01:49:22;11.48;;;7.82;;
38911;SDS011;28444;48.056;14.408;2023-07-09T01:52:09;19.08;;;8.07;;
38911;SDS011;28444;48.056;14.408;2023-07-09T01:54:56;9.18;;;6.72;;
38911;SDS011;28444;48.056;14.408;2023-07-09T01:57:44;11.93;;;7.25;;
38911;SDS011;28444;48.056;14.408;2023-07-09T02:00:32;10.95;;;6.85;;
38911;SDS011;28444;48.056;14.408;2023-07-09T02:03:23;17.65;;;7.30;;
38911;SDS011;28444;48.056;14.408;2023-07-09T02:06:11;10.55;;;6.47;;
38911;SDS011;28444;48.056;14.408;2023-07-09T02:08:59;15.98;;;7.55;;
38911;SDS011;28444;48.056;14.408;2023-07-09T02:11:46;11.88;;;6.80;;
38911;SDS011;28444;48.056;14.408;2023-07-09T02:14:32;10.50;;;7.22;;
38911;SDS011;28444;48.056;14.408;2023-07-09T02:17:19;16.30;;;7.43;;
38911;SDS011;28444;48.056;14.408;2023-07-09T02:20:07;16.08;;;6.70;;
38911;SDS011;28444;48.056;14.408;2023-07-09T02:22:55;14.82;;;7.43;;
38911;SDS011;28444;48.056;14.408;2023-07-09T02:25:42;12.50;;;7.13;;
38911;SDS011;28444;48.056;14.408;2023-07-09T02:28:29;11.65;;;7.03;;
38911;SDS011;28444;48.056;14.408;2023-07-09T02:31:16;15.25;;;7.15;;
38911;SDS011;28444;48.056;14.408;2023-07-09T02:34:03;17.15;;;7.40;;
38911;SDS011;28444;48.056;14.408;2023-07-09T02:36:50;13.23;;;7.47;;
38911;SDS011;28444;48.056;14.408;2023-07-09T02:39:37;10.45;;;7.10;;
38911;SDS011;28444;48.056;14.408;2023-07-09T02:42:24;11.05;;;7.47;;
38911;SDS011;28444;48.056;14.408;2023-07-09T02:45:11;12.07;;;7.45;;
38911;SDS011;28444;48.056;14.408;2023-07-09T02:47:58;12.38;;;7.78;;
38911;SDS011;28444;48.056;14.408;2023-07-09T02:50:45;7.75;;;5.88;;
38911;SDS011;28444;48.056;14.408;2023-07-09T02:53:32;9.93;;;7.40;;
38911;SDS011;28444;48.056;14.408;2023-07-09T02:56:18;15.70;;;7.68;;
38911;SDS011;28444;48.056;14.408;2023-07-09T02:59:05;14.68;;;7.63;;
38911;SDS011;28444;48.056;14.408;2023-07-09T03:01:52;12.63;;;7.20;;
38911;SDS011;28444;48.056;14.408;2023-07-09T03:04:39;12.02;;;7.50;;
38911;SDS011;28444;48.056;14.408;2023-07-09T03:07:26;11.10;;;7.65;;
38911;SDS011;28444;48.056;14.408;2023-07-09T03:10:13;12.80;;;6.68;;
38911;SDS011;28444;48.056;14.408;2023-07-09T03:13:00;13.30;;;8.25;;
38911;SDS011;28444;48.056;14.408;2023-07-09T03:15:54;10.65;;;7.30;;
38911;SDS011;28444;48.056;14.408;2023-07-09T03:18:42;13.55;;;6.93;;
38911;SDS011;28444;48.056;14.408;2023-07-09T03:21:29;16.98;;;8.15;;
38911;SDS011;28444;48.056;14.408;2023-07-09T03:24:16;9.15;;;6.47;;
38911;SDS011;28444;48.056;14.408;2023-07-09T03:27:05;14.32;;;7.13;;
38911;SDS011;28444;48.056;14.408;2023-07-09T03:29:53;15.13;;;7.78;;
38911;SDS011;28444;48.056;14.408;2023-07-09T03:32:39;12.85;;;7.10;;
38911;SDS011;28444;48.056;14.408;2023-07-09T03:35:27;9.95;;;6.30;;
38911;SDS011;28444;48.056;14.408;2023-07-09T03:38:13;11.70;;;7.15;;
38911;SDS011;28444;48.056;14.408;2023-07-09T03:41:00;14.23;;;6.95;;
38911;SDS011;28444;48.056;14.408;2023-07-09T03:43:48;9.23;;;5.97;;
38911;SDS011;28444;48.056;14.408;2023-07-09T03:46:39;17.25;;;6.72;;
38911;SDS011;28444;48.056;14.408;2023-07-09T03:49:26;9.38;;;6.57;;
38911;SDS011;28444;48.056;14.408;2023-07-09T03:52:13;12.00;;;6.75;;
38911;SDS011;28444;48.056;14.408;2023-07-09T03:55:00;11.32;;;6.78;;
38911;SDS011;28444;48.056;14.408;2023-07-09T03:57:48;10.45;;;6.78;;
38911;SDS011;28444;48.056;14.408;2023-07-09T04:00:35;13.45;;;6.50;;
38911;SDS011;28444;48.056;14.408;2023-07-09T04:03:23;10.43;;;7.03;;
38911;SDS011;28444;48.056;14.408;2023-07-09T04:06:10;9.80;;;7.00;;
38911;SDS011;28444;48.056;14.408;2023-07-09T04:08:57;21.98;;;8.40;;
38911;SDS011;28444;48.056;14.408;2023-07-09T04:11:47;11.60;;;6.55;;
38911;SDS011;28444;48.056;14.408;2023-07-09T04:14:33;21.95;;;7.47;;
38911;SDS011;28444;48.056;14.408;2023-07-09T04:17:20;12.13;;;6.35;;
38911;SDS011;28444;48.056;14.408;2023-07-09T04:20:10;11.05;;;6.53;;
38911;SDS011;28444;48.056;14.408;2023-07-09T04:22:57;13.75;;;6.35;;
38911;SDS011;28444;48.056;14.408;2023-07-09T04:25:44;10.02;;;6.93;;
38911;SDS011;28444;48.056;14.408;2023-07-09T04:28:31;13.07;;;6.38;;
38911;SDS011;28444;48.056;14.408;2023-07-09T04:31:18;13.27;;;7.93;;
38911;SDS011;28444;48.056;14.408;2023-07-09T04:34:05;14.65;;;7.13;;
38911;SDS011;28444;48.056;14.408;2023-07-09T04:36:52;11.10;;;6.90;;
38911;SDS011;28444;48.056;14.408;2023-07-09T04:39:39;10.23;;;5.90;;
38911;SDS011;28444;48.056;14.408;2023-07-09T04:42:27;10.30;;;6.38;;
38911;SDS011;28444;48.056;14.408;2023-07-09T04:45:14;11.68;;;6.40;;
38911;SDS011;28444;48.056;14.408;2023-07-09T04:48:01;12.88;;;6.95;;
38911;SDS011;28444;48.056;14.408;2023-07-09T04:50:48;16.30;;;7.30;;
38911;SDS011;28444;48.056;14.408;2023-07-09T04:53:36;13.80;;;8.50;;
38911;SDS011;28444;48.056;14.408;2023-07-09T04:56:24;14.23;;;7.97;;
38911;SDS011;28444;48.056;14.408;2023-07-09T04:59:12;12.27;;;7.00;;
38911;SDS011;28444;48.056;14.408;2023-07-09T05:01:59;9.45;;;6.80;;
38911;SDS011;28444;48.056;14.408;2023-07-09T05:04:46;11.05;;;6.90;;
38911;SDS011;28444;48.056;14.408;2023-07-09T05:07:33;16.00;;;7.05;;
38911;SDS011;28444;48.056;14.408;2023-07-09T05:10:20;11.93;;;7.50;;
38911;SDS011;28444;48.056;14.408;2023-07-09T05:13:07;12.80;;;7.38;;
38911;SDS011;28444;48.056;14.408;2023-07-09T05:15:54;11.32;;;7.15;;
38911;SDS011;28444;48.056;14.408;2023-07-09T05:18:41;10.40;;;6.95;;
38911;SDS011;28444;48.056;14.408;2023-07-09T05:21:28;9.88;;;7.57;;
38911;SDS011;28444;48.056;14.408;2023-07-09T05:24:15;11.50;;;6.57;;
38911;SDS011;28444;48.056;14.408;2023-07-09T05:27:02;14.35;;;7.95;;
38911;SDS011;28444;48.056;14.408;2023-07-09T05:29:49;10.68;;;6.72;;
38911;SDS011;28444;48.056;14.408;2023-07-09T05:32:36;15.90;;;6.70;;
38911;SDS011;28444;48.056;14.408;2023-07-09T05:35:24;12.57;;;7.53;;
38911;SDS011;28444;48.056;14.408;2023-07-09T05:38:12;22.80;;;7.03;;
38911;SDS011;28444;48.056;14.408;2023-07-09T05:41:01;13.65;;;6.82;;
38911;SDS011;28444;48.056;14.408;2023-07-09T05:43:50;10.40;;;6.93;;
38911;SDS011;28444;48.056;14.408;2023-07-09T05:46:38;13.38;;;7.20;;
38911;SDS011;28444;48.056;14.408;2023-07-09T05:49:25;11.18;;;7.20;;
38911;SDS011;28444;48.056;14.408;2023-07-09T05:52:12;12.82;;;7.28;;
38911;SDS011;28444;48.056;14.408;2023-07-09T05:54:59;11.35;;;6.53;;
38911;SDS011;28444;48.056;14.408;2023-07-09T05:57:46;14.43;;;6.65;;
38911;SDS011;28444;48.056;14.408;2023-07-09T06:00:33;11.38;;;7.10;;
38911;SDS011;28444;48.056;14.408;2023-07-09T06:03:22;14.25;;;7.47;;
38911;SDS011;28444;48.056;14.408;2023-07-09T06:06:11;12.93;;;7.53;;
38911;SDS011;28444;48.056;14.408;2023-07-09T06:08:59;12.23;;;6.43;;
38911;SDS011;28444;48.056;14.408;2023-07-09T06:11:46;11.15;;;7.07;;
38911;SDS011;28444;48.056;14.408;2023-07-09T06:14:33;12.18;;;6.55;;
38911;SDS011;28444;48.056;14.408;2023-07-09T06:17:20;11.05;;;6.68;;
38911;SDS011;28444;48.056;14.408;2023-07-09T06:20:07;9.85;;;6.72;;
38911;SDS011;28444;48.056;14.408;2023-07-09T06:22:55;12.73;;;7.00;;
38911;SDS011;28444;48.056;14.408;2023-07-09T06:25:43;15.73;;;6.97;;
38911;SDS011;28444;48.056;14.408;2023-07-09T06:28:33;12.40;;;7.07;;
38911;SDS011;28444;48.056;14.408;2023-07-09T06:31:20;9.68;;;6.57;;
38911;SDS011;28444;48.056;14.408;2023-07-09T06:34:07;11.73;;;6.88;;
38911;SDS011;28444;48.056;14.408;2023-07-09T06:36:56;12.32;;;7.22;;
38911;SDS011;28444;48.056;14.408;2023-07-09T06:39:43;14.82;;;7.18;;
38911;SDS011;28444;48.056;14.408;2023-07-09T06:42:30;16.13;;;6.93;;
38911;SDS011;28444;48.056;14.408;2023-07-09T06:45:17;13.25;;;7.80;;
38911;SDS011;28444;48.056;14.408;2023-07-09T06:48:04;14.63;;;7.43;;
38911;SDS011;28444;48.056;14.408;2023-07-09T06:50:52;16.67;;;7.43;;
38911;SDS011;28444;48.056;14.408;2023-07-09T06:53:40;10.63;;;7.05;;
38911;SDS011;28444;48.056;14.408;2023-07-09T06:56:27;12.40;;;6.75;;
38911;SDS011;28444;48.056;14.408;2023-07-09T06:59:14;14.23;;;6.95;;
38911;SDS011;28444;48.056;14.408;2023-07-09T07:02:01;14.95;;;7.10;;
38911;SDS011;28444;48.056;14.408;2023-07-09T07:04:48;17.50;;;7.05;;
38911;SDS011;28444;48.056;14.408;2023-07-09T07:07:35;13.70;;;7.30;;
38911;SDS011;28444;48.056;14.408;2023-07-09T07:10:22;16.40;;;8.55;;
38911;SDS011;28444;48.056;14.408;2023-07-09T07:13:09;15.88;;;7.40;;
38911;SDS011;28444;48.056;14.408;2023-07-09T07:15:56;11.73;;;7.10;;
38911;SDS011;28444;48.056;14.408;2023-07-09T07:18:43;10.57;;;7.25;;
38911;SDS011;28444;48.056;14.408;2023-07-09T07:21:30;11.73;;;6.40;;
38911;SDS011;28444;48.056;14.408;2023-07-09T07:24:17;11.50;;;7.18;;
38911;SDS011;28444;48.056;14.408;2023-07-09T07:27:04;12.02;;;7.10;;
38911;SDS011;28444;48.056;14.408;2023-07-09T07:29:51;16.35;;;7.90;;
38911;SDS011;28444;48.056;14.408;2023-07-09T07:32:44;9.73;;;6.47;;
38911;SDS011;28444;48.056;14.408;2023-07-09T07:35:32;15.68;;;7.55;;
38911;SDS011;28444;48.056;14.408;2023-07-09T07:38:19;10.60;;;6.95;;
38911;SDS011;28444;48.056;14.408;2023-07-09T07:41:06;12.00;;;7.43;;
38911;SDS011;28444;48.056;14.408;2023-07-09T07:43:54;13.60;;;7.43;;
38911;SDS011;28444;48.056;14.408;2023-07-09T07:46:41;12.73;;;6.53;;
38911;SDS011;28444;48.056;14.408;2023-07-09T07:49:28;10.57;;;7.22;;
38911;SDS011;28444;48.056;14.408;2023-07-09T07:52:14;9.00;;;6.90;;
38911;SDS011;28444;48.056;14.408;2023-07-09T07:55:02;15.23;;;7.43;;
38911;SDS011;28444;48.056;14.408;2023-07-09T07:57:49;9.90;;;6.80;;
38911;SDS011;28444;48.056;14.408;2023-07-09T08:00:36;10.52;;;7.13;;
38911;SDS011;28444;48.056;14.408;2023-07-09T08:03:26;11.68;;;6.65;;
38911;SDS011;28444;48.056;14.408;2023-07-09T08:06:13;12.73;;;7.57;;
38911;SDS011;28444;48.056;14.408;2023-07-09T08:09:00;10.75;;;7.25;;
38911;SDS011;28444;48.056;14.408;2023-07-09T08:11:47;11.45;;;7.03;;
38911;SDS011;28444;48.056;14.408;2023-07-09T08:14:36;9.05;;;6.35;;
38911;SDS011;28444;48.056;14.408;2023-07-09T08:17:23;14.85;;;7.78;;
38911;SDS011;28444;48.056;14.408;2023-07-09T08:20:10;9.07;;;6.55;;
38911;SDS011;28444;48.056;14.408;2023-07-09T08:22:57;12.40;;;6.05;;
38911;SDS011;28444;48.056;14.408;2023-07-09T08:25:43;11.65;;;6.28;;
38911;SDS011;28444;48.056;14.408;2023-07-09T08:28:31;15.43;;;7.22;;
38911;SDS011;28444;48.056;14.408;2023-07-09T08:31:18;20.42;;;8.32;;
38911;SDS011;28444;48.056;14.408;2023-07-09T08:34:06;15.43;;;7.50;;
38911;SDS011;28444;48.056;14.408;2023-07-09T08:36:53;16.00;;;6.82;;
38911;SDS011;28444;48.056;14.408;2023-07-09T08:39:40;10.65;;;7.35;;
38911;SDS011;28444;48.056;14.408;2023-07-09T08:42:39;10.55;;;7.22;;
38911;SDS011;28444;48.056;14.408;2023-07-09T08:49:12;14.55;;;7.75;;
38911;SDS011;28444;48.056;14.408;2023-07-09T08:52:05;15.82;;;7.55;;
38911;SDS011;28444;48.056;14.408;2023-07-09T08:55:27;12.77;;;7.03;;
38911;SDS011;28444;48.056;14.408;2023-07-09T08:58:23;9.55;;;7.47;;
38911;SDS011;28444;48.056;14.408;2023-07-09T09:01:20;10.13;;;7.25;;
38911;SDS011;28444;48.056;14.408;2023-07-09T09:04:16;13.77;;;7.05;;
38911;SDS011;28444;48.056;14.408;2023-07-09T09:07:28;16.92;;;7.60;;
38911;SDS011;28444;48.056;14.408;2023-07-09T09:10:36;12.93;;;7.15;;
38911;SDS011;28444;48.056;14.408;2023-07-09T09:13:29;14.73;;;7.10;;
38911;SDS011;28444;48.056;14.408;2023-07-09T09:16:22;13.57;;;7.20;;
38911;SDS011;28444;48.056;14.408;2023-07-09T09:19:22;13.32;;;7.45;;
38911;SDS011;28444;48.056;14.408;2023-07-09T09:22:15;10.45;;;7.03;;
38911;SDS011;28444;48.056;14.408;2023-07-09T09:25:24;11.38;;;7.88;;
38911;SDS011;28444;48.056;14.408;2023-07-09T09:28:13;9.55;;;6.82;;
38911;SDS011;28444;48.056;14.408;2023-07-09T09:31:00;14.07;;;6.95;;
38911;SDS011;28444;48.056;14.408;2023-07-09T09:33:48;9.73;;;6.75;;
38911;SDS011;28444;48.056;14.408;2023-07-09T09:36:36;18.70;;;8.52;;
38911;SDS011;28444;48.056;14.408;2023-07-09T09:39:24;12.48;;;6.47;;
38911;SDS011;28444;48.056;14.408;2023-07-09T09:42:12;11.02;;;7.00;;
38911;SDS011;28444;48.056;14.408;2023-07-09T09:45:00;10.10;;;6.50;;
38911;SDS011;28444;48.056;14.408;2023-07-09T09:47:47;10.57;;;7.05;;
38911;SDS011;28444;48.056;14.408;2023-07-09T09:50:35;12.75;;;7.30;;
38911;SDS011;28444;48.056;14.408;2023-07-09T09:53:23;14.02;;;7.00;;
38911;SDS011;28444;48.056;14.408;2023-07-09T09:56:13;11.07;;;7.32;;
38911;SDS011;28444;48.056;14.408;2023-07-09T09:59:05;10.55;;;6.80;;
38911;SDS011;28444;48.056;14.408;2023-07-09T10:01:59;13.02;;;6.78;;
38911;SDS011;28444;48.056;14.408;2023-07-09T10:04:50;9.93;;;7.20;;
38911;SDS011;28444;48.056;14.408;2023-07-09T10:07:39;11.48;;;7.40;;
38911;SDS011;28444;48.056;14.408;2023-07-09T10:10:34;11.00;;;7.30;;
38911;SDS011;28444;48.056;14.408;2023-07-09T10:13:24;12.57;;;6.93;;
38911;SDS011;28444;48.056;14.408;2023-07-09T10:16:19;13.18;;;7.30;;
38911;SDS011;28444;48.056;14.408;2023-07-09T10:22:22;10.05;;;7.18;;
38911;SDS011;28444;48.056;14.408;2023-07-09T10:25:33;12.75;;;6.38;;
38911;SDS011;28444;48.056;14.408;2023-07-09T10:28:43;11.98;;;6.68;;
38911;SDS011;28444;48.056;14.408;2023-07-09T10:31:46;10.52;;;6.20;;
38911;SDS011;28444;48.056;14.408;2023-07-09T10:37:46;9.68;;;6.20;;
38911;SDS011;28444;48.056;14.408;2023-07-09T10:40:41;10.23;;;5.82;;
38911;SDS011;28444;48.056;14.408;2023-07-09T10:46:33;11.43;;;6.68;;
38911;SDS011;28444;48.056;14.408;2023-07-09T10:49:25;11.38;;;6.43;;
38911;SDS011;28444;48.056;14.408;2023-07-09T10:52:21;9.30;;;6.28;;
38911;SDS011;28444;48.056;14.408;2023-07-09T10:55:17;8.50;;;6.60;;
38911;SDS011;28444;48.056;14.408;2023-07-09T11:01:15;11.40;;;6.18;;
38911;SDS011;28444;48.056;14.408;2023-07-09T11:04:09;11.32;;;6.00;;
38911;SDS011;28444;48.056;14.408;2023-07-09T11:07:10;13.05;;;7.00;;
38911;SDS011;28444;48.056;14.408;2023-07-09T11:10:01;10.60;;;5.82;;
38911;SDS011;28444;48.056;14.408;2023-07-09T11:13:01;9.70;;;5.65;;
38911;SDS011;28444;48.056;14.408;2023-07-09T11:15:50;7.95;;;5.90;;
38911;SDS011;28444;48.056;14.408;2023-07-09T11:18:41;8.20;;;5.22;;
38911;SDS011;28444;48.056;14.408;2023-07-09T11:21:45;9.30;;;5.20;;
38911;SDS011;28444;48.056;14.408;2023-07-09T11:25:08;6.72;;;4.90;;
38911;SDS011;28444;48.056;14.408;2023-07-09T11:28:05;12.15;;;4.55;;
38911;SDS011;28444;48.056;14.408;2023-07-09T11:30:53;9.18;;;6.07;;
38911;SDS011;28444;48.056;14.408;2023-07-09T11:33:45;9.82;;;6.43;;
38911;SDS011;28444;48.056;14.408;2023-07-09T11:36:34;13.65;;;6.00;;
38911;SDS011;28444;48.056;14.408;2023-07-09T11:39:52;14.40;;;5.93;;
38911;SDS011;28444;48.056;14.408;2023-07-09T11:43:25;11.80;;;5.70;;
38911;SDS011;28444;48.056;14.408;2023-07-09T11:46:13;11.80;;;5.28;;
38911;SDS011;28444;48.056;14.408;2023-07-09T11:49:04;7.97;;;4.95;;
38911;SDS011;28444;48.056;14.408;2023-07-09T11:51:59;7.95;;;4.78;;
38911;SDS011;28444;48.056;14.408;2023-07-09T11:54:48;6.05;;;4.88;;
38911;SDS011;28444;48.056;14.408;2023-07-09T11:57:37;9.73;;;5.68;;
38911;SDS011;28444;48.056;14.408;2023-07-09T12:00:25;6.80;;;5.28;;
38911;SDS011;28444;48.056;14.408;2023-07-09T12:06:24;9.20;;;4.93;;
38911;SDS011;28444;48.056;14.408;2023-07-09T12:09:19;6.53;;;4.53;;
38911;SDS011;28444;48.056;14.408;2023-07-09T12:12:20;7.25;;;4.82;;
38911;SDS011;28444;48.056;14.408;2023-07-09T12:15:21;6.75;;;4.57;;
38911;SDS011;28444;48.056;14.408;2023-07-09T12:18:11;11.52;;;4.97;;
38911;SDS011;28444;48.056;14.408;2023-07-09T12:21:00;6.40;;;4.88;;
38911;SDS011;28444;48.056;14.408;2023-07-09T12:23:48;10.88;;;4.70;;
38911;SDS011;28444;48.056;14.408;2023-07-09T12:26:35;14.63;;;5.07;;
38911;SDS011;28444;48.056;14.408;2023-07-09T12:29:26;9.75;;;5.05;;
38911;SDS011;28444;48.056;14.408;2023-07-09T12:32:18;10.57;;;5.35;;
38911;SDS011;28444;48.056;14.408;2023-07-09T12:35:11;6.88;;;4.78;;
38911;SDS011;28444;48.056;14.408;2023-07-09T12:37:59;7.32;;;5.38;;
38911;SDS011;28444;48.056;14.408;2023-07-09T12:40:47;12.50;;;6.93;;
38911;SDS011;28444;48.056;14.408;2023-07-09T12:43:36;8.65;;;5.63;;
38911;SDS011;28444;48.056;14.408;2023-07-09T12:46:23;9.85;;;5.63;;
38911;SDS011;28444;48.056;14.408;2023-07-09T12:49:24;7.85;;;4.70;;
38911;SDS011;28444;48.056;14.408;2023-07-09T12:52:18;11.18;;;5.30;;
38911;SDS011;28444;48.056;14.408;2023-07-09T12:55:19;6.55;;;4.80;;
38911;SDS011;28444;48.056;14.408;2023-07-09T12:58:11;6.65;;;4.53;;
38911;SDS011;28444;48.056;14.408;2023-07-09T13:01:14;7.40;;;4.70;;
38911;SDS011;28444;48.056;14.408;2023-07-09T13:04:03;12.65;;;5.85;;
38911;SDS011;28444;48.056;14.408;2023-07-09T13:06:50;10.35;;;5.13;;
38911;SDS011;28444;48.056;14.408;2023-07-09T13:09:47;9.70;;;5.30;;
38911;SDS011;28444;48.056;14.408;2023-07-09T13:12:38;7.10;;;4.80;;
38911;SDS011;28444;48.056;14.408;2023-07-09T13:18:24;11.90;;;4.88;;
38911;SDS011;28444;48.056;14.408;2023-07-09T13:21:13;8.70;;;5.45;;
38911;SDS011;28444;48.056;14.408;2023-07-09T13:24:04;8.23;;;4.40;;
38911;SDS011;28444;48.056;14.408;2023-07-09T13:27:03;7.22;;;4.95;;
38911;SDS011;28444;48.056;14.408;2023-07-09T13:29:51;7.13;;;4.82;;
38911;SDS011;28444;48.056;14.408;2023-07-09T13:32:39;8.63;;;5.00;;
38911;SDS011;28444;48.056;14.408;2023-07-09T13:35:26;10.52;;;5.75;;
38911;SDS011;28444;48.056;14.408;2023-07-09T13:38:14;14.85;;;5.88;;
38911;SDS011;28444;48.056;14.408;2023-07-09T13:41:12;9.07;;;5.95;;
38911;SDS011;28444;48.056;14.408;2023-07-09T13:44:05;10.57;;;5.90;;
38911;SDS011;28444;48.056;14.408;2023-07-09T13:46:59;6.97;;;4.75;;
38911;SDS011;28444;48.056;14.408;2023-07-09T13:49:46;6.25;;;5.00;;
38911;SDS011;28444;48.056;14.408;2023-07-09T13:52:33;8.73;;;5.35;;
38911;SDS011;28444;48.056;14.408;2023-07-09T13:55:22;14.23;;;5.30;;
38911;SDS011;28444;48.056;14.408;2023-07-09T13:58:11;6.82;;;5.32;;
38911;SDS011;28444;48.056;14.408;2023-07-09T14:00:59;7.07;;;5.60;;
38911;SDS011;28444;48.056;14.408;2023-07-09T14:03:56;9.23;;;4.97;;
38911;SDS011;28444;48.056;14.408;2023-07-09T14:06:47;11.90;;;5.40;;
38911;SDS011;28444;48.056;14.408;2023-07-09T14:09:34;10.70;;;5.63;;
38911;SDS011;28444;48.056;14.408;2023-07-09T14:12:21;7.70;;;5.05;;
38911;SDS011;28444;48.056;14.408;2023-07-09T14:15:11;9.85;;;5.55;;
38911;SDS011;28444;48.056;14.408;2023-07-09T14:18:03;9.52;;;5.13;;
38911;SDS011;28444;48.056;14.408;2023-07-09T14:20:51;7.15;;;4.70;;
38911;SDS011;28444;48.056;14.408;2023-07-09T14:23:38;7.80;;;4.78;;
38911;SDS011;28444;48.056;14.408;2023-07-09T14:26:26;7.85;;;4.95;;
38911;SDS011;28444;48.056;14.408;2023-07-09T14:29:13;7.85;;;5.13;;
38911;SDS011;28444;48.056;14.408;2023-07-09T14:34:59;8.60;;;4.75;;
38911;SDS011;28444;48.056;14.408;2023-07-09T14:37:48;5.50;;;4.47;;
38911;SDS011;28444;48.056;14.408;2023-07-09T14:40:36;9.77;;;5.13;;
38911;SDS011;28444;48.056;14.408;2023-07-09T14:43:23;8.75;;;4.93;;
38911;SDS011;28444;48.056;14.408;2023-07-09T14:46:10;6.45;;;4.47;;
38911;SDS011;28444;48.056;14.408;2023-07-09T14:48:57;8.00;;;5.30;;
38911;SDS011;28444;48.056;14.408;2023-07-09T14:51:44;7.15;;;4.82;;
38911;SDS011;28444;48.056;14.408;2023-07-09T14:54:32;9.63;;;4.68;;
38911;SDS011;28444;48.056;14.408;2023-07-09T14:57:22;8.77;;;5.00;;
38911;SDS011;28444;48.056;14.408;2023-07-09T15:00:13;10.07;;;4.57;;
38911;SDS011;28444;48.056;14.408;2023-07-09T15:03:08;7.80;;;5.18;;
38911;SDS011;28444;48.056;14.408;2023-07-09T15:05:56;8.88;;;5.03;;
38911;SDS011;28444;48.056;14.408;2023-07-09T15:08:43;6.60;;;4.68;;
38911;SDS011;28444;48.056;14.408;2023-07-09T15:11:30;10.27;;;5.30;;
38911;SDS011;28444;48.056;14.408;2023-07-09T15:14:17;8.18;;;5.13;;
38911;SDS011;28444;48.056;14.408;2023-07-09T15:17:04;8.52;;;4.35;;
38911;SDS011;28444;48.056;14.408;2023-07-09T15:19:51;10.00;;;4.90;;
38911;SDS011;28444;48.056;14.408;2023-07-09T15:22:38;6.80;;;5.43;;
38911;SDS011;28444;48.056;14.408;2023-07-09T15:25:27;6.97;;;4.65;;
38911;SDS011;28444;48.056;14.408;2023-07-09T15:28:17;10.43;;;4.72;;
38911;SDS011;28444;48.056;14.408;2023-07-09T15:31:06;5.80;;;4.70;;
38911;SDS011;28444;48.056;14.408;2023-07-09T15:33:57;8.02;;;5.03;;
38911;SDS011;28444;48.056;14.408;2023-07-09T15:36:45;9.57;;;5.30;;
38911;SDS011;28444;48.056;14.408;2023-07-09T15:39:34;9.18;;;5.75;;
38911;SDS011;28444;48.056;14.408;2023-07-09T15:42:21;7.22;;;4.60;;
38911;SDS011;28444;48.056;14.408;2023-07-09T15:45:12;6.70;;;4.82;;
38911;SDS011;28444;48.056;14.408;2023-07-09T15:48:00;7.35;;;4.65;;
38911;SDS011;28444;48.056;14.408;2023-07-09T15:50:47;6.53;;;4.95;;
38911;SDS011;28444;48.056;14.408;2023-07-09T15:53:34;6.75;;;4.20;;
38911;SDS011;28444;48.056;14.408;2023-07-09T15:56:24;7.65;;;4.60;;
38911;SDS011;28444;48.056;14.408;2023-07-09T15:59:33;8.82;;;5.55;;
38911;SDS011;28444;48.056;14.408;2023-07-09T16:02:21;9.25;;;5.47;;
38911;SDS011;28444;48.056;14.408;2023-07-09T16:05:14;7.07;;;4.63;;
38911;SDS011;28444;48.056;14.408;2023-07-09T16:08:04;9.10;;;5.00;;
38911;SDS011;28444;48.056;14.408;2023-07-09T16:10:51;7.30;;;5.00;;
38911;SDS011;28444;48.056;14.408;2023-07-09T16:13:38;9.43;;;5.38;;
38911;SDS011;28444;48.056;14.408;2023-07-09T16:16:26;10.60;;;5.38;;
38911;SDS011;28444;48.056;14.408;2023-07-09T16:19:14;14.80;;;5.40;;
38911;SDS011;28444;48.056;14.408;2023-07-09T16:22:02;10.38;;;4.70;;
38911;SDS011;28444;48.056;14.408;2023-07-09T16:24:51;6.45;;;4.93;;
38911;SDS011;28444;48.056;14.408;2023-07-09T16:27:38;8.32;;;4.57;;
38911;SDS011;28444;48.056;14.408;2023-07-09T16:30:26;9.70;;;4.50;;
38911;SDS011;28444;48.056;14.408;2023-07-09T16:33:18;7.43;;;5.07;;
38911;SDS011;28444;48.056;14.408;2023-07-09T16:36:08;6.63;;;4.40;;
38911;SDS011;28444;48.056;14.408;2023-07-09T16:38:59;9.80;;;5.53;;
38911;SDS011;28444;48.056;14.408;2023-07-09T16:41:47;8.27;;;4.38;;
38911;SDS011;28444;48.056;14.408;2023-07-09T16:44:34;6.43;;;5.13;;
38911;SDS011;28444;48.056;14.408;2023-07-09T16:47:21;8.32;;;5.00;;
38911;SDS011;28444;48.056;14.408;2023-07-09T16:50:12;8.23;;;4.55;;
38911;SDS011;28444;48.056;14.408;2023-07-09T16:53:00;7.43;;;4.32;;
38911;SDS011;28444;48.056;14.408;2023-07-09T16:55:47;9.77;;;4.90;;
38911;SDS011;28444;48.056;14.408;2023-07-09T16:58:35;7.30;;;5.43;;
38911;SDS011;28444;48.056;14.408;2023-07-09T17:01:23;8.52;;;5.15;;
38911;SDS011;28444;48.056;14.408;2023-07-09T17:04:26;6.90;;;4.55;;
38911;SDS011;28444;48.056;14.408;2023-07-09T17:07:17;7.30;;;4.68;;
38911;SDS011;28444;48.056;14.408;2023-07-09T17:10:04;6.78;;;4.53;;